Time;durP1;ratioP1;P1;durP2;ratioP2;P2;SDS_P1;SDS_P2;PMS_P1;PMS_P2;Temp;Humidity;BMP_temperature;BMP_pressure;BME280_temperature;BME280_humidity;BME280_pressure;Samples;Min_cycle;Max_cycle;Signal;HPM_P1;HPM_P2
2022/03/24 00:00:44;;;;;;;0.38;0.38;;;;;;;4.37;100.00;102502.06;5023109;28;20061;-80
2022/03/24 00:03:14;;;;;;;0.32;0.32;;;;;;;4.39;100.00;102510.81;5028383;28;20502;-80
2022/03/24 00:05:47;;;;;;;0.40;0.40;;;;;;;4.44;100.00;102504.81;5031559;28;20037;-80
2022/03/24 00:08:20;;;;;;;0.40;0.40;;;;;;;4.41;100.00;102497.94;5023000;28;20057;-80
2022/03/24 00:10:53;;;;;;;0.47;0.47;;;;;;;4.49;100.00;102502.38;5017838;28;20840;-80
2022/03/24 00:13:26;;;;;;;0.50;0.50;;;;;;;4.45;100.00;102502.94;5026815;28;20050;-80
2022/03/24 00:16:00;;;;;;;0.40;0.40;;;;;;;4.55;100.00;102489.97;5019714;28;21576;-80
2022/03/24 00:18:34;;;;;;;0.30;0.30;;;;;;;4.48;100.00;102497.19;5020809;28;20049;-81
2022/03/24 00:21:08;;;;;;;0.50;0.50;;;;;;;4.41;100.00;102497.94;5027775;28;20483;-80
2022/03/24 00:23:36;;;;;;;0.40;0.40;;;;;;;4.41;100.00;102494.44;5029176;28;20090;-80
2022/03/24 00:26:04;;;;;;;0.40;0.40;;;;;;;4.38;100.00;102492.94;5022892;28;20046;-80
2022/03/24 00:28:38;;;;;;;0.40;0.40;;;;;;;4.40;100.00;102493.56;5021307;28;20045;-80
2022/03/24 00:31:11;;;;;;;0.40;0.40;;;;;;;4.38;100.00;102489.44;5026838;28;20042;-80
2022/03/24 00:33:45;;;;;;;0.50;0.50;;;;;;;4.37;100.00;102491.28;5013593;28;20042;-80
2022/03/24 00:36:18;;;;;;;0.38;0.38;;;;;;;4.32;100.00;102488.31;5034974;28;20041;-80
2022/03/24 00:38:53;;;;;;;0.40;0.40;;;;;;;4.29;100.00;102477.09;5022726;28;20046;-81
2022/03/24 00:41:28;;;;;;;0.40;0.40;;;;;;;4.28;100.00;102488.91;5024322;28;20053;-80
2022/03/24 00:43:57;;;;;;;0.50;0.50;;;;;;;4.26;100.00;102472.94;5025474;28;20060;-80
2022/03/24 00:46:31;;;;;;;0.30;0.30;;;;;;;4.26;100.00;102475.63;5024438;28;20424;-80
2022/03/24 00:49:02;;;;;;;0.25;0.25;;;;;;;4.22;100.00;102479.72;5015889;28;20425;-80
2022/03/24 00:51:35;;;;;;;0.30;0.30;;;;;;;4.14;100.00;102463.69;5025813;28;20425;-80
2022/03/24 00:54:04;;;;;;;0.30;0.30;;;;;;;4.24;100.00;102466.91;5023529;28;20422;-80
2022/03/24 00:56:37;;;;;;;0.30;0.30;;;;;;;4.24;100.00;102473.13;5019976;28;20432;-80
2022/03/24 00:59:10;;;;;;;;;;;;;;;4.21;100.00;102467.28;5018927;28;20057;-80
2022/03/24 01:01:43;;;;;;;0.30;0.30;;;;;;;4.21;100.00;102465.44;5029099;28;19921;-80
2022/03/24 01:04:12;;;;;;;;;;;;;;;4.18;100.00;102465.78;5029894;28;20060;-80
2022/03/24 01:06:45;;;;;;;;;;;;;;;4.15;100.00;102463.50;5020449;28;19929;-81
2022/03/24 01:09:18;;;;;;;;;;;;;;;4.10;100.00;102457.84;5019853;28;20467;-80
2022/03/24 01:11:51;;;;;;;;;;;;;;;4.08;100.00;102460.72;5029624;28;20455;-80
2022/03/24 01:14:19;;;;;;;;;;;;;;;4.08;100.00;102459.91;5022038;28;20404;-80
2022/03/24 01:16:52;;;;;;;;;;;;;;;4.02;100.00;102461.53;5028901;28;19925;-80
2022/03/24 01:19:27;;;;;;;;;;;;;;;4.01;100.00;102462.53;5018804;28;19983;-80
2022/03/24 01:22:00;;;;;;;;;;;;;;;3.94;100.00;102466.22;5019163;28;19941;-79
2022/03/24 01:24:36;;;;;;;;;;;;;;;3.91;100.00;102459.34;5018684;28;20609;-81
2022/03/24 01:27:04;;;;;;;;;;;;;;;3.87;100.00;102461.56;5026563;28;19921;-79
2022/03/24 01:29:38;;;;;;;;;;;;;;;3.83;100.00;102462.16;5031224;28;19925;-80
2022/03/24 01:32:12;;;;;;;;;;;;;;;3.81;100.00;102466.88;5023508;28;19928;-80
2022/03/24 01:34:47;;;;;;;;;;;;;;;3.80;100.00;102465.19;5019975;28;19921;-81
2022/03/24 01:37:22;;;;;;;0.40;0.40;;;;;;;3.89;100.00;102462.22;5019842;28;19926;-80
2022/03/24 01:39:56;;;;;;;0.38;0.38;;;;;;;3.86;100.00;102459.88;5030189;28;20486;-81
2022/03/24 01:42:29;;;;;;;0.40;0.40;;;;;;;3.75;100.00;102452.31;5023863;28;20049;-80
2022/03/24 01:45:04;;;;;;;0.40;0.40;;;;;;;3.78;100.00;102465.41;5027318;28;20054;-80
2022/03/24 01:47:38;;;;;;;0.30;0.30;;;;;;;3.72;100.00;102464.31;5022656;28;20041;-80
2022/03/24 01:50:13;;;;;;;0.40;0.40;;;;;;;3.71;100.00;102469.88;5022055;28;20045;-80
2022/03/24 01:52:46;;;;;;;0.40;0.40;;;;;;;3.57;100.00;102447.34;5034916;28;20045;-80
2022/03/24 01:55:20;;;;;;;0.40;0.40;;;;;;;3.60;100.00;102457.75;5023396;28;20606;-80
2022/03/24 01:57:54;;;;;;;0.38;0.38;;;;;;;3.63;100.00;102457.34;5019350;28;20462;-80
2022/03/24 02:00:28;;;;;;;0.40;0.40;;;;;;;3.57;100.00;102458.13;5024037;28;20061;-80
2022/03/24 02:03:05;;;;;;;0.40;0.40;;;;;;;3.45;100.00;102443.47;5027291;28;20064;-80
2022/03/24 02:05:40;;;;;;;0.40;0.40;;;;;;;3.46;100.00;102451.38;5028628;28;20050;-80
2022/03/24 02:08:14;;;;;;;0.40;0.40;;;;;;;3.49;100.00;102453.66;5027687;28;20069;-80
2022/03/24 02:10:42;;;;;;;0.40;0.40;;;;;;;3.45;100.00;102456.94;5033872;28;20057;-80
2022/03/24 02:13:15;;;;;;;;;;;;;;;3.38;100.00;102446.94;5027457;28;20053;-80
2022/03/24 02:15:49;;;;;;;;;;;;;;;3.36;100.00;102454.34;5035286;28;19925;-80
2022/03/24 02:18:22;;;;;;;;;;;;;;;3.34;100.00;102448.34;5031290;28;20393;-81
2022/03/24 02:20:53;;;;;;;;;;;;;;;3.30;100.00;102438.13;5023757;28;19939;-80
2022/03/24 02:23:27;;;;;;;;;;;;;;;3.31;100.00;102445.19;5034411;28;19920;-80
2022/03/24 02:26:01;;;;;;;;;;;;;;;3.27;100.00;102444.72;5026457;28;19925;-80
2022/03/24 02:28:34;;;;;;;;;;;;;;;3.29;100.00;102447.25;5026760;28;19925;-81
2022/03/24 02:31:03;;;;;;;;;;;;;;;3.26;100.00;102451.13;5027343;28;19933;-79
2022/03/24 02:33:36;;;;;;;;;;;;;;;3.27;100.00;102450.09;5028947;28;19926;-80
2022/03/24 02:36:11;;;;;;;;;;;;;;;3.24;100.00;102450.47;5024104;28;20290;-80
2022/03/24 02:38:40;;;;;;;;;;;;;;;3.17;100.00;102458.44;5021258;28;19921;-80
2022/03/24 02:41:13;;;;;;;;;;;;;;;3.13;100.00;102448.25;5033991;28;19929;-80
2022/03/24 02:43:41;;;;;;;;;;;;;;;3.16;100.00;102451.41;5022737;28;19921;-79
2022/03/24 02:46:09;;;;;;;;;;;;;;;3.16;100.00;102455.94;5025155;28;20505;-80
2022/03/24 02:48:42;;;;;;;;;;;;;;;3.14;100.00;102453.44;5022732;28;19930;-79
2022/03/24 02:51:15;;;;;;;;;;;;;;;3.19;100.00;102440.28;5030373;28;19933;-80
2022/03/24 02:53:49;;;;;;;;;;;;;;;3.20;100.00;102449.16;5025571;28;19925;-80
2022/03/24 02:56:17;;;;;;;;;;;;;;;3.18;100.00;102449.38;5031132;28;19925;-80
2022/03/24 02:58:50;;;;;;;;;;;;;;;3.20;100.00;102452.72;5019366;28;19932;-80
2022/03/24 03:01:25;;;;;;;;;;;;;;;3.24;100.00;102447.78;5031412;28;19928;-80
2022/03/24 03:03:57;;;;;;;;;;;;;;;3.20;100.00;102444.66;5023283;28;20301;-79
2022/03/24 03:06:26;;;;;;;;;;;;;;;3.18;100.00;102452.06;5027991;28;19932;-80
2022/03/24 03:09:01;;;;;;;;;;;;;;;3.15;100.00;102443.50;5025057;28;19921;-81
2022/03/24 03:11:31;;;;;;;;;;;;;;;3.08;100.00;102445.28;5028192;28;19928;-80
2022/03/24 03:14:04;;;;;;;;;;;;;;;3.03;100.00;102452.06;5026624;28;19921;-80
2022/03/24 03:16:32;;;;;;;;;;;;;;;2.98;100.00;102450.94;5022812;28;19921;-80
2022/03/24 03:19:00;;;;;;;;;;;;;;;3.00;100.00;102447.06;5024505;28;19928;-80
2022/03/24 03:21:33;;;;;;;;;;;;;;;3.02;100.00;102455.75;5022727;28;19928;-80
2022/03/24 03:24:03;;;;;;;;;;;;;;;2.98;100.00;102451.75;5017741;28;19932;-80
2022/03/24 03:26:36;;;;;;;;;;;;;;;2.89;100.00;102448.34;5032458;28;20266;-81
2022/03/24 03:29:04;;;;;;;;;;;;;;;2.89;100.00;102453.72;5018587;28;19930;-80
2022/03/24 03:31:37;;;;;;;;;;;;;;;2.84;100.00;102444.53;5016279;28;19928;-80
2022/03/24 03:34:10;;;;;;;;;;;;;;;2.78;100.00;102448.81;5023519;28;19921;-80
2022/03/24 03:36:39;;;;;;;;;;;;;;;2.79;100.00;102449.63;5030664;28;19936;-80
2022/03/24 03:39:13;;;;;;;;;;;;;;;2.72;100.00;102445.00;5027124;28;20290;-80
2022/03/24 03:41:46;;;;;;;;;;;;;;;2.72;100.00;102442.31;5030819;28;19925;-80
2022/03/24 03:44:19;;;;;;;;;;;;;;;2.69;100.00;102445.38;5030917;28;19932;-80
2022/03/24 03:46:52;;;;;;;;;;;;;;;2.64;100.00;102441.56;5022164;28;20401;-80
2022/03/24 03:49:25;;;;;;;;;;;;;;;2.54;100.00;102434.59;5026210;28;19921;-80
2022/03/24 03:51:58;;;;;;;;;;;;;;;2.52;100.00;102436.63;5021894;28;19921;-80
2022/03/24 03:54:27;;;;;;;;;;;;;;;2.45;100.00;102437.53;5029334;28;19925;-79
2022/03/24 03:56:55;;;;;;;;;;;;;;;2.41;100.00;102445.13;5030080;28;20408;-80
2022/03/24 03:59:23;;;;;;;0.40;0.40;;;;;;;2.32;100.00;102427.41;5027180;28;20732;-80
2022/03/24 04:01:57;;;;;;;;;;;;;;;2.40;100.00;102439.94;5021224;28;20042;-80
2022/03/24 04:04:31;;;;;;;;;;;;;;;2.36;100.00;102434.94;5026391;28;19971;-80
2022/03/24 04:07:04;;;;;;;;;;;;;;;2.36;100.00;102431.38;5028614;28;19929;-80
2022/03/24 04:09:34;;;;;;;0.50;0.50;;;;;;;2.26;100.00;102430.81;5021564;28;19921;-79
2022/03/24 04:12:07;;;;;;;;;;;;;;;2.32;100.00;102430.09;5026724;28;20478;-80
2022/03/24 04:14:40;;;;;;;0.45;0.45;;;;;;;2.30;100.00;102434.81;5017429;28;20393;-80
2022/03/24 04:17:13;;;;;;;0.55;0.55;;;;;;;2.32;100.00;102436.31;5023940;28;20538;-80
2022/03/24 04:19:46;;;;;;;0.50;0.50;;;;;;;2.51;100.00;102426.91;5025765;28;20056;-80
2022/03/24 04:22:19;;;;;;;0.50;0.50;;;;;;;2.42;100.00;102419.94;5015369;28;20436;-80
2022/03/24 04:24:49;;;;;;;0.50;0.50;;;;;;;2.52;100.00;102438.47;5023809;28;20447;-80
2022/03/24 04:27:17;;;;;;;0.40;0.40;;;;;;;2.48;100.00;102437.19;5029051;28;20419;-80
2022/03/24 04:29:45;;;;;;;0.30;0.30;;;;;;;2.48;100.00;102439.88;5013765;28;20747;-80
2022/03/24 04:32:18;;;;;;;0.40;0.40;;;;;;;2.40;100.00;102424.63;5027503;28;20413;-81
2022/03/24 04:34:46;;;;;;;0.20;0.20;;;;;;;2.38;100.00;102424.81;5019742;28;20418;-78
2022/03/24 04:37:15;;;;;;;0.30;0.30;;;;;;;2.36;100.00;102434.94;5030191;28;20890;-80
2022/03/24 04:39:49;;;;;;;0.40;0.30;;;;;;;2.41;100.00;102436.25;5014773;28;20429;-80
2022/03/24 04:42:22;;;;;;;0.30;0.30;;;;;;;2.35;100.00;102435.94;5022380;28;20916;-81
2022/03/24 04:44:55;;;;;;;0.30;0.30;;;;;;;2.28;100.00;102443.06;5009453;28;20459;-80
2022/03/24 04:47:29;;;;;;;0.27;0.27;;;;;;;2.20;100.00;102427.00;5027003;28;20432;-80
2022/03/24 04:50:02;;;;;;;0.30;0.30;;;;;;;2.23;100.00;102428.50;5027069;28;20430;-80
2022/03/24 04:52:36;;;;;;;0.30;0.30;;;;;;;2.17;100.00;102432.75;5011901;28;20772;-80
2022/03/24 04:55:07;;;;;;;0.30;0.30;;;;;;;2.12;100.00;102432.44;5023063;28;20893;-80
2022/03/24 04:57:41;;;;;;;0.30;0.30;;;;;;;2.12;100.00;102427.91;5036584;28;20448;-80
2022/03/24 05:00:17;;;;;;;0.30;0.30;;;;;;;2.24;100.00;102431.00;5020391;28;20424;-81
2022/03/24 05:02:51;;;;;;;0.30;0.30;;;;;;;2.09;100.00;102419.38;5019940;28;20448;-80
2022/03/24 05:05:24;;;;;;;0.30;0.30;;;;;;;2.21;100.00;102424.13;5019980;28;20909;-80
2022/03/24 05:07:57;;;;;;;0.20;0.20;;;;;;;2.20;100.00;102429.69;5016323;28;20411;-80
2022/03/24 05:10:32;;;;;;;0.30;0.30;;;;;;;2.18;100.00;102426.34;5020449;28;20417;-80
2022/03/24 05:13:06;;;;;;;0.20;0.20;;;;;;;2.29;100.00;102422.41;5022041;28;20427;-79
2022/03/24 05:15:39;;;;;;;0.25;0.25;;;;;;;2.17;100.00;102422.84;5024713;28;20431;-80
2022/03/24 05:18:12;;;;;;;0.30;0.30;;;;;;;2.26;100.00;102430.81;5025147;28;20423;-80
2022/03/24 05:20:41;;;;;;;0.30;0.30;;;;;;;2.36;100.00;102428.69;5015537;28;20885;-80
2022/03/24 05:23:14;;;;;;;0.20;0.20;;;;;;;2.38;100.00;102413.25;5017503;28;20434;-80
2022/03/24 05:25:48;;;;;;;0.30;0.30;;;;;;;2.38;100.00;102430.19;5015204;28;20779;-81
2022/03/24 05:28:17;;;;;;;0.30;0.30;;;;;;;2.46;100.00;102431.97;5018398;28;20411;-80
2022/03/24 05:30:45;;;;;;;0.30;0.30;;;;;;;2.55;100.00;102430.91;5021515;28;20424;-80
2022/03/24 05:33:18;;;;;;;0.30;0.30;;;;;;;2.63;100.00;102437.22;5025689;28;21089;-80
2022/03/24 05:35:46;;;;;;;0.30;0.30;;;;;;;2.61;100.00;102436.53;5028834;28;20823;-80
2022/03/24 05:38:19;;;;;;;0.20;0.20;;;;;;;2.61;100.00;102425.78;5023369;28;20868;-80
2022/03/24 05:40:49;;;;;;;0.40;0.30;;;;;;;2.75;100.00;102437.56;5027907;28;20901;-80
2022/03/24 05:43:22;;;;;;;0.20;0.20;;;;;;;2.76;100.00;102428.50;5023602;28;20435;-80
2022/03/24 05:45:55;;;;;;;0.30;0.30;;;;;;;2.92;100.00;102435.56;5029430;28;20421;-79
2022/03/24 05:48:28;;;;;;;0.30;0.30;;;;;;;3.00;100.00;102432.78;5027742;28;20415;-80
2022/03/24 05:51:15;;;;;;;0.30;0.30;;;;;;;3.01;100.00;102434.44;5028126;28;20442;-80
2022/03/24 05:53:49;;;;;;;0.27;0.27;;;;;;;3.11;100.00;102434.13;5036176;28;20901;-80
2022/03/24 05:56:23;;;;;;;0.30;0.30;;;;;;;3.09;100.00;102428.94;5021806;28;20455;-80
2022/03/24 05:58:56;;;;;;;0.28;0.28;;;;;;;3.22;100.00;102434.50;5026241;28;20419;-80
2022/03/24 06:01:30;;;;;;;0.30;0.30;;;;;;;3.24;100.00;102439.72;5029509;28;20419;-80
2022/03/24 06:04:05;;;;;;;0.30;0.30;;;;;;;3.20;100.00;102428.50;5023347;28;20430;-81
2022/03/24 06:06:38;;;;;;;0.20;0.20;;;;;;;3.34;100.00;102444.78;5030868;28;20473;-80
2022/03/24 06:09:11;;;;;;;0.32;0.32;;;;;;;3.38;100.00;102440.69;5017992;28;20451;-80
2022/03/24 06:11:46;;;;;;;0.38;0.38;;;;;;;3.35;100.00;102443.78;5025437;28;20460;-80
2022/03/24 06:14:20;;;;;;;0.30;0.30;;;;;;;3.15;100.00;102443.50;5026490;28;20428;-81
2022/03/24 06:16:53;;;;;;;0.30;0.30;;;;;;;3.20;100.00;102449.16;5026637;28;20461;-80
2022/03/24 06:19:21;;;;;;;0.30;0.30;;;;;;;3.28;100.00;102454.44;5024598;28;20424;-81
2022/03/24 06:21:55;;;;;;;0.30;0.30;;;;;;;3.34;100.00;102452.88;5030356;28;20895;-80
2022/03/24 06:24:29;;;;;;;0.40;0.40;;;;;;;3.40;100.00;102462.91;5029627;28;20431;-79
2022/03/24 06:27:04;;;;;;;0.30;0.30;;;;;;;3.39;100.00;102459.34;5026068;28;20876;-80
2022/03/24 06:29:37;;;;;;;0.40;0.40;;;;;;;3.24;100.00;102450.47;5020396;28;20424;-80
2022/03/24 06:32:10;;;;;;;0.30;0.30;;;;;;;3.27;100.00;102465.41;5017291;28;20833;-80
2022/03/24 06:34:39;;;;;;;0.35;0.35;;;;;;;3.17;100.00;102457.63;5024502;28;20415;-80
2022/03/24 06:37:12;;;;;;;0.30;0.30;;;;;;;3.17;100.00;102465.69;5022271;28;20428;-80
2022/03/24 06:39:45;;;;;;;0.30;0.30;;;;;;;3.16;100.00;102467.56;5023817;28;20437;-80
2022/03/24 06:42:23;;;;;;;0.40;0.40;;;;;;;3.12;100.00;102460.03;5028882;28;20423;-80
2022/03/24 06:44:51;;;;;;;0.30;0.30;;;;;;;3.21;100.00;102469.69;5026320;28;21044;-80
2022/03/24 06:47:24;;;;;;;0.40;0.40;;;;;;;3.32;100.00;102473.75;5023244;28;20426;-80
2022/03/24 06:49:58;;;;;;;0.30;0.30;;;;;;;3.35;100.00;102468.00;5019722;28;20459;-81
2022/03/24 06:52:31;;;;;;;0.35;0.35;;;;;;;3.43;100.00;102467.06;5023427;28;20434;-80
2022/03/24 06:55:05;;;;;;;0.40;0.40;;;;;;;3.46;100.00;102459.44;5020213;28;20892;-80
2022/03/24 06:57:40;;;;;;;0.30;0.30;;;;;;;3.65;100.00;102467.97;5022502;28;20413;-80
2022/03/24 07:00:15;;;;;;;0.40;0.40;;;;;;;3.76;100.00;102472.84;5024635;28;20434;-79
2022/03/24 07:02:48;;;;;;;0.40;0.40;;;;;;;3.69;100.00;102453.09;5021131;28;20492;-80
2022/03/24 07:05:21;;;;;;;0.40;0.40;;;;;;;3.87;100.00;102476.91;5018616;28;20430;-80
2022/03/24 07:07:55;;;;;;;0.40;0.40;;;;;;;3.99;100.00;102482.59;5016758;28;20435;-80
2022/03/24 07:10:23;;;;;;;0.30;0.30;;;;;;;4.08;100.00;102484.97;5015275;28;20436;-79
2022/03/24 07:12:59;;;;;;;0.40;0.40;;;;;;;4.22;100.00;102485.94;5026450;28;20785;-80
2022/03/24 07:15:33;;;;;;;0.40;0.40;;;;;;;4.35;100.00;102479.88;5020226;28;20058;-79
2022/03/24 07:18:06;;;;;;;0.40;0.40;;;;;;;4.49;100.00;102477.25;5018367;28;20052;-79
2022/03/24 07:20:39;;;;;;;0.50;0.50;;;;;;;4.65;100.00;102484.25;5020108;28;20042;-79
2022/03/24 07:23:12;;;;;;;0.32;0.32;;;;;;;4.80;100.00;102476.06;5021047;28;20056;-79
2022/03/24 07:25:46;;;;;;;0.40;0.40;;;;;;;4.93;100.00;102471.59;5025446;28;20037;-79
2022/03/24 07:28:20;;;;;;;0.32;0.32;;;;;;;5.13;100.00;102480.84;5017322;28;20057;-79
2022/03/24 07:30:53;;;;;;;0.40;0.40;;;;;;;5.31;100.00;102480.31;5022683;28;20038;-79
2022/03/24 07:33:26;;;;;;;0.52;0.40;;;;;;;5.53;100.00;102481.03;5012680;28;20045;-79
2022/03/24 07:36:00;;;;;;;0.38;0.38;;;;;;;5.59;100.00;102481.06;5007707;28;20125;-80
2022/03/24 07:38:33;;;;;;;0.40;0.40;;;;;;;5.73;100.00;102479.25;5002527;28;20049;-80
2022/03/24 07:41:07;;;;;;;0.43;0.43;;;;;;;5.83;100.00;102476.16;5000297;28;20413;-79
2022/03/24 07:43:42;;;;;;;0.30;0.30;;;;;;;5.93;100.00;102476.59;4998374;28;20056;-78
2022/03/24 07:46:15;;;;;;;0.38;0.38;;;;;;;6.02;100.00;102482.69;5005489;28;20061;-78
2022/03/24 07:48:49;;;;;;;0.40;0.40;;;;;;;6.10;100.00;102473.53;5003387;28;20045;-79
2022/03/24 07:51:22;;;;;;;0.30;0.30;;;;;;;6.26;100.00;102481.25;5000586;28;20069;-79
2022/03/24 07:54:00;;;;;;;0.30;0.30;;;;;;;6.42;100.00;102481.88;4998540;28;20848;-79
2022/03/24 07:56:35;;;;;;;0.98;0.38;;;;;;;6.53;100.00;102475.00;5005310;28;20754;-80
2022/03/24 07:59:06;;;;;;;0.40;0.40;;;;;;;6.69;100.00;102474.59;5010749;28;20053;-79
2022/03/24 08:01:39;;;;;;;0.30;0.30;;;;;;;6.71;100.00;102471.66;5005232;28;20058;-79
2022/03/24 08:04:13;;;;;;;0.35;0.35;;;;;;;6.89;100.00;102471.88;5014864;28;20041;-79
2022/03/24 08:06:46;;;;;;;0.30;0.30;;;;;;;6.92;100.00;102470.63;4999816;28;20052;-79
2022/03/24 08:09:19;;;;;;;0.40;0.40;;;;;;;7.00;100.00;102467.66;5002625;28;20445;-79
2022/03/24 08:11:48;;;;;;;0.30;0.30;;;;;;;7.04;100.00;102476.19;5002050;28;20049;-79
2022/03/24 08:14:22;;;;;;;0.40;0.40;;;;;;;7.17;100.00;102473.47;5002371;28;20545;-79
2022/03/24 08:16:50;;;;;;;0.30;0.30;;;;;;;7.30;100.00;102478.81;5002767;28;20160;-79
2022/03/24 08:19:23;;;;;;;0.38;0.38;;;;;;;7.32;100.00;102479.47;5001237;28;20422;-78
2022/03/24 08:21:52;;;;;;;0.40;0.40;;;;;;;7.35;100.00;102480.91;4998796;28;20053;-79
2022/03/24 08:24:25;;;;;;;0.30;0.30;;;;;;;7.38;100.00;102475.06;5002679;28;20045;-79
2022/03/24 08:26:58;;;;;;;0.30;0.30;;;;;;;7.38;100.00;102491.31;4965920;28;20049;-80
2022/03/24 08:29:33;;;;;;;0.30;0.30;;;;;;;7.45;100.00;102481.28;5020325;28;20053;-79
2022/03/24 08:32:07;;;;;;;0.40;0.40;;;;;;;7.64;100.00;102476.81;5018128;28;20748;-80
2022/03/24 08:34:40;;;;;;;0.63;0.32;;;;;;;7.74;100.00;102480.97;5015820;28;20060;-81
2022/03/24 08:37:08;;;;;;;0.40;0.40;;;;;;;7.86;100.00;102478.38;5019581;28;20064;-80
2022/03/24 08:39:41;;;;;;;0.40;0.40;;;;;;;7.95;100.00;102487.91;5016740;28;20081;-81
2022/03/24 08:42:14;;;;;;;0.30;0.30;;;;;;;8.07;100.00;102488.06;5030330;28;20473;-80
2022/03/24 08:44:49;;;;;;;0.30;0.30;;;;;;;8.02;100.00;102477.88;5019184;28;20065;-80
2022/03/24 08:47:17;;;;;;;0.38;0.30;;;;;;;8.06;100.00;102483.69;5012532;28;20064;-79
2022/03/24 08:49:45;;;;;;;0.30;0.30;;;;;;;8.15;100.00;102485.09;5019228;28;20051;-80
2022/03/24 08:52:21;;;;;;;0.40;0.40;;;;;;;8.13;100.00;102490.75;5019799;28;20639;-80
2022/03/24 08:54:49;;;;;;;0.30;0.30;;;;;;;8.21;100.00;102492.34;5020241;28;20064;-79
2022/03/24 08:57:26;;;;;;;0.65;0.30;;;;;;;8.13;100.00;102498.88;5015667;28;20049;-79
2022/03/24 08:59:57;;;;;;;0.40;0.40;;;;;;;8.18;100.00;102492.78;5019154;28;20061;-79
2022/03/24 09:02:25;;;;;;;0.20;0.20;;;;;;;8.28;100.00;102490.41;5019879;28;20056;-79
2022/03/24 09:04:58;;;;;;;0.40;0.38;;;;;;;8.51;100.00;102483.59;5013352;28;20122;-80
2022/03/24 09:07:26;;;;;;;0.40;0.40;;;;;;;8.61;100.00;102485.81;5013327;28;20068;-79
2022/03/24 09:10:00;;;;;;;0.30;0.30;;;;;;;8.70;100.00;102491.78;5014207;28;20060;-79
2022/03/24 09:12:35;;;;;;;0.60;0.40;;;;;;;8.63;100.00;102483.69;5014376;28;20048;-79
2022/03/24 09:15:10;;;;;;;0.30;0.30;;;;;;;8.78;100.00;102483.34;5016957;28;20052;-80
2022/03/24 09:17:44;;;;;;;0.20;0.20;;;;;;;8.89;100.00;102490.75;5018656;28;20070;-79
2022/03/24 09:20:20;;;;;;;0.30;0.30;;;;;;;8.84;100.00;102477.88;5019530;28;20053;-80
2022/03/24 09:22:49;;;;;;;0.30;0.30;;;;;;;9.08;100.00;102491.63;5019235;28;20044;-79
2022/03/24 09:25:18;;;;;;;0.20;0.20;;;;;;;9.16;100.00;102485.91;5016196;28;20057;-79
2022/03/24 09:27:52;;;;;;;0.30;0.30;;;;;;;9.17;100.00;102489.47;5016947;28;20088;-80
2022/03/24 09:30:26;;;;;;;0.35;0.35;;;;;;;9.22;100.00;102491.50;5018999;28;20080;-80
2022/03/24 09:32:59;;;;;;;0.30;0.30;;;;;;;9.43;100.00;102485.59;4993682;28;20433;-80
2022/03/24 09:35:28;;;;;;;0.30;0.30;;;;;;;9.37;100.00;102489.22;5020543;28;20053;-81
2022/03/24 09:38:01;;;;;;;0.30;0.30;;;;;;;9.35;100.00;102489.44;5022028;28;20056;-80
2022/03/24 09:40:30;;;;;;;0.35;0.35;;;;;;;9.41;100.00;102476.03;5019234;28;20049;-80
2022/03/24 09:43:04;;;;;;;0.60;0.40;;;;;;;9.42;100.00;102481.22;5021264;28;20060;-79
2022/03/24 09:45:39;;;;;;;0.30;0.30;;;;;;;9.66;100.00;102479.44;5017510;28;20057;-79
2022/03/24 09:48:12;;;;;;;0.38;0.38;;;;;;;9.67;100.00;102478.38;5029384;28;20117;-79
2022/03/24 09:50:46;;;;;;;0.40;0.30;;;;;;;9.63;100.00;102470.94;5021619;28;20078;-80
2022/03/24 09:53:19;;;;;;;0.20;0.20;;;;;;;9.73;100.00;102481.25;5024007;28;20432;-79
2022/03/24 09:55:48;;;;;;;0.40;0.40;;;;;;;9.64;94.86;102478.00;5020446;28;21398;-80
2022/03/24 09:58:24;;;;;;;0.30;0.30;;;;;;;9.86;98.30;102475.66;5021115;28;20049;-79
2022/03/24 10:00:54;;;;;;;0.30;0.30;;;;;;;9.91;100.00;102474.94;5024282;28;20071;-80
2022/03/24 10:03:27;;;;;;;0.40;0.40;;;;;;;10.00;100.00;102468.94;5023969;28;20489;-80
2022/03/24 10:05:58;;;;;;;0.30;0.30;;;;;;;10.14;100.00;102472.28;5023763;28;20072;-79
2022/03/24 10:08:28;;;;;;;0.30;0.30;;;;;;;10.19;100.00;102471.56;5016849;28;20060;-79
2022/03/24 10:11:04;;;;;;;0.38;0.38;;;;;;;10.28;100.00;102466.66;5023832;28;20059;-80
2022/03/24 10:13:43;;;;;;;0.40;0.40;;;;;;;10.44;94.39;102462.41;5020018;28;20857;-79
2022/03/24 10:16:43;;;;;;;0.32;0.32;;;;;;;10.64;86.30;102464.81;5019789;28;20040;-79
2022/03/24 10:19:18;;;;;;;0.20;0.20;;;;;;;10.60;90.69;102459.00;5017574;28;20061;-79
2022/03/24 10:21:49;;;;;;;0.38;0.38;;;;;;;10.45;95.66;102451.28;5020605;28;20849;-79
2022/03/24 10:24:23;;;;;;;0.30;0.30;;;;;;;10.71;79.42;102465.53;5018473;28;20072;-79
2022/03/24 10:26:55;;;;;;;0.30;0.30;;;;;;;10.56;87.14;102460.53;5022825;28;20053;-80
2022/03/24 10:29:30;;;;;;;0.20;0.20;;;;;;;10.68;90.28;102466.81;5018739;28;20091;-79
2022/03/24 10:32:11;;;;;;;0.30;0.30;;;;;;;10.73;99.69;102457.97;5019310;28;20956;-79
2022/03/24 10:34:48;;;;;;;0.30;0.30;;;;;;;10.74;99.69;102467.75;5015759;28;20056;-79
2022/03/24 10:37:22;;;;;;;0.30;0.30;;;;;;;10.68;87.81;102460.56;5018438;28;20630;-80
2022/03/24 10:40:02;;;;;;;0.30;0.30;;;;;;;10.83;82.40;102457.34;5020337;28;20061;-79
2022/03/24 10:42:38;;;;;;;0.45;0.30;;;;;;;10.95;92.11;102460.91;5021998;28;20045;-79
2022/03/24 10:45:15;;;;;;;0.90;0.30;;;;;;;10.87;93.64;102462.09;5016639;28;20045;-80
2022/03/24 10:47:50;;;;;;;0.40;0.40;;;;;;;10.99;97.22;102455.78;5018950;28;20500;-80
2022/03/24 10:50:23;;;;;;;0.30;0.30;;;;;;;10.99;88.06;102453.91;5020276;28;20065;-81
2022/03/24 10:53:00;;;;;;;0.40;0.30;;;;;;;11.19;87.12;102453.50;5018151;28;20057;-79
2022/03/24 10:55:47;;;;;;;0.30;0.30;;;;;;;11.23;82.32;102443.78;5013597;28;20096;-80
2022/03/24 10:58:25;;;;;;;0.30;0.30;;;;;;;11.16;90.35;102443.09;5015877;28;20052;-81
2022/03/24 11:00:58;;;;;;;0.30;0.30;;;;;;;11.22;84.16;102447.56;5013094;28;20057;-80
2022/03/24 11:03:33;;;;;;;0.30;0.30;;;;;;;11.35;88.80;102442.91;5023706;28;20049;-80
2022/03/24 11:06:08;;;;;;;0.30;0.30;;;;;;;11.45;93.35;102442.28;5019290;28;20041;-81
2022/03/24 11:08:37;;;;;;;0.38;0.38;;;;;;;11.49;100.00;102433.41;5024745;28;20063;-80
2022/03/24 11:11:10;;;;;;;0.30;0.30;;;;;;;11.69;100.00;102437.59;5019220;28;20056;-80
2022/03/24 11:13:47;;;;;;;0.30;0.30;;;;;;;11.68;93.76;102438.66;5020902;28;20061;-80
2022/03/24 11:16:22;;;;;;;0.30;0.30;;;;;;;11.65;77.94;102439.97;5016208;28;20052;-80
2022/03/24 11:18:54;;;;;;;0.30;0.30;;;;;;;11.67;89.01;102436.97;5014304;28;20049;-80
2022/03/24 11:21:33;;;;;;;0.30;0.30;;;;;;;11.73;93.96;102414.19;5024284;28;20068;-79
2022/03/24 11:24:03;;;;;;;0.30;0.30;;;;;;;11.88;92.45;102433.56;5017807;28;20055;-80
2022/03/24 11:26:36;;;;;;;0.50;0.30;;;;;;;11.90;83.27;102428.72;5016537;28;20052;-80
2022/03/24 11:29:10;;;;;;;0.20;0.20;;;;;;;11.98;78.11;102432.94;5018053;28;20060;-79
2022/03/24 11:31:45;;;;;;;0.30;0.30;;;;;;;11.87;79.85;102431.09;5024383;28;20053;-79
2022/03/24 11:34:20;;;;;;;0.43;0.30;;;;;;;11.82;80.47;102423.66;4991586;28;20064;-79
2022/03/24 11:36:54;;;;;;;0.30;0.30;;;;;;;11.80;78.28;102425.78;5015529;28;20059;-79
2022/03/24 11:39:28;;;;;;;0.30;0.30;;;;;;;11.88;72.84;102422.66;5023685;28;20053;-80
2022/03/24 11:42:01;;;;;;;0.30;0.30;;;;;;;12.12;79.20;102414.34;5022486;28;20063;-80
2022/03/24 11:44:45;;;;;;;0.28;0.28;;;;;;;12.21;74.21;102423.78;5018361;28;20064;-80
2022/03/24 11:47:19;;;;;;;0.28;0.28;;;;;;;12.12;73.27;102419.81;5018202;28;20583;-79
2022/03/24 11:50:07;;;;;;;0.30;0.30;;;;;;;12.30;70.95;102409.72;5020959;28;20057;-79
2022/03/24 11:52:35;;;;;;;0.30;0.30;;;;;;;12.27;70.40;102411.03;5020122;28;20052;-79
2022/03/24 11:55:15;;;;;;;0.30;0.30;;;;;;;12.64;75.91;102407.78;5017513;28;21542;-80
2022/03/24 11:57:43;;;;;;;0.40;0.40;;;;;;;12.54;73.51;102407.63;5017730;28;20501;-79
2022/03/24 12:00:46;;;;;;;0.30;0.30;;;;;;;12.43;72.23;102406.66;5022706;28;20055;-80
2022/03/24 12:03:39;;;;;;;0.30;0.30;;;;;;;12.65;67.87;102403.13;5015210;28;20517;-80
2022/03/24 12:06:16;;;;;;;0.30;0.30;;;;;;;12.74;65.59;102402.44;5027961;28;20071;-79